createdAt,value
2018-09-03T00:00:14.449Z,0
2018-09-03T00:01:23.099Z,0
2018-09-03T00:02:31.740Z,0
2018-09-03T00:03:40.391Z,0
2018-09-03T00:04:49.041Z,0
2018-09-03T00:05:57.950Z,0
2018-09-03T00:07:06.858Z,0
2018-09-03T00:08:15.767Z,0
2018-09-03T00:09:24.413Z,0
2018-09-03T00:10:33.065Z,0
2018-09-03T00:11:41.710Z,0
2018-09-03T00:12:50.354Z,0
2018-09-03T00:13:59.265Z,0
2018-09-03T00:15:07.906Z,0
2018-09-03T00:16:17.107Z,0
2018-09-03T00:17:25.751Z,0
2018-09-03T00:18:34.402Z,0
2018-09-03T00:19:43.305Z,0
2018-09-03T00:20:51.961Z,0
2018-09-03T00:22:00.600Z,0
2018-09-03T00:23:09.521Z,0
2018-09-03T00:24:18.158Z,0
2018-09-03T00:25:26.813Z,0
2018-09-03T00:26:35.723Z,0
2018-09-03T00:27:44.377Z,0
2018-09-03T00:28:53.015Z,0
2018-09-03T00:30:01.665Z,0
2018-09-03T00:31:10.320Z,0
2018-09-03T00:32:18.967Z,0
2018-09-03T00:33:27.885Z,0
2018-09-03T00:34:36.784Z,0
2018-09-03T00:35:45.441Z,0
2018-09-03T00:36:54.090Z,0
2018-09-03T00:38:02.745Z,0
2018-09-03T00:39:11.384Z,0
2018-09-03T00:40:20.307Z,0
2018-09-03T00:41:29.207Z,0
2018-09-03T00:42:37.862Z,0
2018-09-03T00:43:46.507Z,0
2018-09-03T00:44:55.157Z,0
2018-09-03T00:46:03.798Z,0
2018-09-03T00:47:12.454Z,0
2018-09-03T00:48:21.098Z,0
2018-09-03T00:49:29.741Z,0
2018-09-03T00:50:38.661Z,0
2018-09-03T00:51:47.304Z,0
2018-09-03T00:52:56.223Z,0
2018-09-03T00:54:04.864Z,0
2018-09-03T00:55:13.517Z,0
2018-09-03T00:56:22.420Z,0
2018-09-03T00:57:31.075Z,0
2018-09-03T00:58:39.722Z,0
2018-09-03T00:59:48.372Z,0
2018-09-03T01:00:57.011Z,0
2018-09-03T01:02:05.665Z,0
2018-09-03T01:03:14.309Z,0
2018-09-03T01:04:22.951Z,0
2018-09-03T01:05:31.866Z,0
2018-09-03T01:06:40.774Z,0
2018-09-03T01:07:49.941Z,0
2018-09-03T01:08:58.584Z,0
2018-09-03T01:10:07.228Z,0
2018-09-03T01:11:16.150Z,0
2018-09-03T01:12:24.794Z,0
2018-09-03T01:13:33.445Z,0
2018-09-03T01:14:42.350Z,0
2018-09-03T01:15:51.005Z,0
2018-09-03T01:16:59.647Z,0
2018-09-03T01:18:08.560Z,0
2018-09-03T01:19:17.196Z,0
2018-09-03T01:20:25.851Z,0
2018-09-03T01:21:34.757Z,0
2018-09-03T01:22:43.404Z,0
2018-09-03T01:23:52.041Z,0
2018-09-03T01:25:00.688Z,0
2018-09-03T01:26:09.337Z,0
2018-09-03T01:27:18.249Z,0
2018-09-03T01:28:26.895Z,0
2018-09-03T01:29:35.955Z,0
2018-09-03T01:30:44.514Z,0
2018-09-03T01:31:53.157Z,0
2018-09-03T01:33:02.085Z,0
2018-09-03T01:34:10.723Z,0
2018-09-03T01:35:19.641Z,0
2018-09-03T01:36:28.282Z,0
2018-09-03T01:37:36.936Z,0
2018-09-03T01:38:45.571Z,0
2018-09-03T01:39:54.489Z,0
2018-09-03T01:41:03.133Z,0
2018-09-03T01:42:11.803Z,0
2018-09-03T01:43:20.705Z,0
2018-09-03T01:44:29.609Z,0
2018-09-03T01:45:38.517Z,0
2018-09-03T01:46:47.164Z,0
2018-09-03T01:47:55.816Z,0
2018-09-03T01:49:04.460Z,0
2018-09-03T01:50:13.374Z,0
2018-09-03T01:51:22.010Z,0
2018-09-03T01:52:30.664Z,0
2018-09-03T01:53:39.306Z,0
2018-09-03T01:54:47.957Z,0
2018-09-03T01:55:56.631Z,0
2018-09-03T01:57:05.249Z,0
2018-09-03T01:58:13.888Z,0
2018-09-03T01:59:22.545Z,0
2018-09-03T02:00:31.186Z,0
2018-09-03T02:01:39.837Z,0
2018-09-03T02:02:48.484Z,0
2018-09-03T02:03:57.131Z,0
2018-09-03T02:05:05.779Z,0
2018-09-03T02:06:14.420Z,0
2018-09-03T02:07:23.066Z,0
2018-09-03T02:08:31.713Z,0
2018-09-03T02:09:40.364Z,0
2018-09-03T02:10:49.266Z,0
2018-09-03T02:11:57.910Z,0
2018-09-03T02:13:06.555Z,0
2018-09-03T02:14:15.202Z,0
2018-09-03T02:15:23.841Z,0
2018-09-03T02:16:32.491Z,0
2018-09-03T02:17:41.134Z,0
2018-09-03T02:18:49.783Z,0
2018-09-03T02:19:58.426Z,0
2018-09-03T02:21:07.070Z,0
2018-09-03T02:22:15.715Z,0
2018-09-03T02:23:24.361Z,0
2018-09-03T02:24:33.009Z,0
2018-09-03T02:25:41.656Z,0
2018-09-03T02:26:50.302Z,0
2018-09-03T02:27:58.945Z,0
2018-09-03T02:29:07.595Z,0
2018-09-03T02:30:16.503Z,0
2018-09-03T02:31:25.688Z,0
2018-09-03T02:32:34.337Z,0
2018-09-03T02:33:43.263Z,0
2018-09-03T02:34:52.174Z,0
2018-09-03T02:36:00.823Z,0
2018-09-03T02:37:09.465Z,0
2018-09-03T02:38:18.119Z,0
2018-09-03T02:39:26.768Z,0
2018-09-03T02:40:35.417Z,0
2018-09-03T02:41:44.329Z,0
2018-09-03T02:42:52.970Z,0
2018-09-03T02:44:01.615Z,0
2018-09-03T02:45:10.261Z,0
2018-09-03T02:46:18.912Z,0
2018-09-03T02:47:27.552Z,0
2018-09-03T02:48:36.204Z,0
2018-09-03T02:49:44.849Z,0
2018-09-03T02:50:53.499Z,0
2018-09-03T02:52:02.444Z,0
2018-09-03T02:53:11.324Z,0
2018-09-03T02:54:19.973Z,0
2018-09-03T02:55:28.887Z,0
2018-09-03T02:56:37.793Z,0
2018-09-03T02:57:46.440Z,0
2018-09-03T02:58:55.088Z,0
2018-09-03T03:00:03.734Z,0
2018-09-03T03:01:12.386Z,0
2018-09-03T03:02:21.030Z,0
2018-09-03T03:03:29.950Z,0
2018-09-03T03:04:38.594Z,0
2018-09-03T03:05:47.515Z,0
2018-09-03T03:06:56.481Z,0
2018-09-03T03:08:05.398Z,0
2018-09-03T03:09:14.037Z,0
2018-09-03T03:10:22.692Z,0
2018-09-03T03:11:31.338Z,0
2018-09-03T03:12:40.254Z,0
2018-09-03T03:13:48.891Z,0
2018-09-03T03:14:57.541Z,0
2018-09-03T03:16:06.451Z,0
2018-09-03T03:17:15.099Z,0
2018-09-03T03:18:23.751Z,0
2018-09-03T03:19:32.388Z,0
2018-09-03T03:20:41.048Z,0
2018-09-03T03:21:50.227Z,0
2018-09-03T03:22:58.881Z,0
2018-09-03T03:24:07.520Z,0
2018-09-03T03:25:16.445Z,0
2018-09-03T03:26:25.086Z,0
2018-09-03T03:27:33.740Z,0
2018-09-03T03:28:42.377Z,0
2018-09-03T03:29:51.028Z,0
2018-09-03T03:31:00.485Z,0
2018-09-03T03:32:09.684Z,0
2018-09-03T03:33:18.591Z,0
2018-09-03T03:34:27.237Z,0
2018-09-03T03:35:36.138Z,0
2018-09-03T03:36:44.782Z,0
2018-09-03T03:37:53.440Z,0
2018-09-03T03:39:02.603Z,0
2018-09-03T03:40:11.251Z,0
2018-09-03T03:41:19.889Z,0
2018-09-03T03:42:28.543Z,0
2018-09-03T03:43:37.184Z,0
2018-09-03T03:44:45.838Z,0
2018-09-03T03:45:54.475Z,0
2018-09-03T03:47:03.130Z,0
2018-09-03T03:48:11.780Z,0
2018-09-03T03:49:20.439Z,0
2018-09-03T03:50:29.079Z,0
2018-09-03T03:51:37.730Z,0
2018-09-03T03:52:46.385Z,0
2018-09-03T03:53:55.029Z,0
2018-09-03T03:55:03.751Z,0
2018-09-03T03:56:12.317Z,0
2018-09-03T03:57:20.971Z,0
2018-09-03T03:58:29.888Z,0
2018-09-03T03:59:38.546Z,0
2018-09-03T04:00:47.188Z,0
2018-09-03T04:01:55.838Z,0
2018-09-03T04:03:04.487Z,0
2018-09-03T04:04:13.137Z,0
2018-09-03T04:05:22.053Z,0
2018-09-03T04:06:30.700Z,0
2018-09-03T04:07:39.342Z,0
2018-09-03T04:08:47.995Z,0
2018-09-03T04:09:56.635Z,0
2018-09-03T04:11:05.284Z,0
2018-09-03T04:12:13.928Z,0
2018-09-03T04:13:22.571Z,0
2018-09-03T04:14:31.221Z,0
2018-09-03T04:15:39.866Z,0
2018-09-03T04:16:48.508Z,0
2018-09-03T04:17:57.153Z,0
2018-09-03T04:19:06.069Z,0
2018-09-03T04:20:14.714Z,0
2018-09-03T04:21:23.622Z,0
2018-09-03T04:22:32.263Z,0
2018-09-03T04:23:40.912Z,0
2018-09-03T04:24:49.556Z,0
2018-09-03T04:25:58.202Z,0
2018-09-03T04:27:06.846Z,0
2018-09-03T04:28:15.493Z,0
2018-09-03T04:29:24.138Z,0
2018-09-03T04:30:32.786Z,0
2018-09-03T04:31:41.698Z,0
2018-09-03T04:32:50.601Z,0
2018-09-03T04:33:59.247Z,0
2018-09-03T04:35:08.172Z,0
2018-09-03T04:36:16.817Z,0
2018-09-03T04:37:25.724Z,0
2018-09-03T04:38:34.417Z,0
2018-09-03T04:39:43.017Z,0
2018-09-03T04:40:51.936Z,0
2018-09-03T04:42:00.579Z,0
2018-09-03T04:43:09.230Z,0
2018-09-03T04:44:18.136Z,0
2018-09-03T04:45:26.788Z,0
2018-09-03T04:46:35.434Z,0
2018-09-03T04:47:44.346Z,0
2018-09-03T04:48:52.997Z,0
2018-09-03T04:50:01.643Z,0
2018-09-03T04:51:10.290Z,0
2018-09-03T04:52:18.941Z,0
2018-09-03T04:53:27.595Z,0
2018-09-03T04:54:36.252Z,0
2018-09-03T04:55:44.879Z,0
2018-09-03T04:56:53.523Z,5
2018-09-03T04:58:02.167Z,5
2018-09-03T04:59:10.813Z,5
2018-09-03T05:00:19.717Z,10
2018-09-03T05:01:28.367Z,10
2018-09-03T05:02:37.009Z,10
2018-09-03T05:03:45.660Z,10
2018-09-03T05:04:54.303Z,10
2018-09-03T05:06:03.029Z,10
2018-09-03T05:07:11.943Z,10
2018-09-03T05:08:20.586Z,10
2018-09-03T05:09:29.506Z,10
2018-09-03T05:10:38.149Z,10
2018-09-03T05:11:46.848Z,10
2018-09-03T05:12:55.437Z,10
2018-09-03T05:14:04.088Z,10
2018-09-03T05:15:12.770Z,10
2018-09-03T05:16:21.489Z,10
2018-09-03T05:17:30.131Z,10
2018-09-03T05:18:38.785Z,15
2018-09-03T05:19:47.429Z,15
2018-09-03T05:20:56.076Z,20
2018-09-03T05:22:04.721Z,20
2018-09-03T05:23:13.370Z,20
2018-09-03T05:24:22.280Z,20
2018-09-03T05:25:31.196Z,20
2018-09-03T05:26:39.844Z,25
2018-09-03T05:27:48.488Z,25
2018-09-03T05:28:57.134Z,25
2018-09-03T05:30:05.784Z,25
2018-09-03T05:31:14.564Z,30
2018-09-03T05:32:23.076Z,25
2018-09-03T05:33:31.725Z,25
2018-09-03T05:34:40.373Z,20
2018-09-03T05:35:49.547Z,20
2018-09-03T05:36:58.210Z,15
2018-09-03T05:38:06.856Z,15
2018-09-03T05:39:15.500Z,15
2018-09-03T05:40:24.149Z,20
2018-09-03T05:41:32.797Z,20
2018-09-03T05:42:41.448Z,25
2018-09-03T05:43:50.424Z,25
2018-09-03T05:44:59.326Z,25
2018-09-03T05:46:08.241Z,25
2018-09-03T05:47:16.895Z,25
2018-09-03T05:48:25.538Z,30
2018-09-03T05:49:34.182Z,35
2018-09-03T05:50:42.901Z,40
2018-09-03T05:51:51.742Z,40
2018-09-03T05:53:00.391Z,40
2018-09-03T05:54:09.030Z,40
2018-09-03T05:55:17.946Z,40
2018-09-03T05:56:26.590Z,40
2018-09-03T05:57:35.515Z,45
2018-09-03T05:58:44.183Z,45
2018-09-03T05:59:53.097Z,40
2018-09-03T06:01:01.750Z,40
2018-09-03T06:02:10.408Z,40
2018-09-03T06:03:19.059Z,35
2018-09-03T06:04:27.698Z,35
2018-09-03T06:05:36.873Z,35
2018-09-03T06:06:45.516Z,35
2018-09-03T06:07:54.178Z,35
2018-09-03T06:09:02.812Z,35
2018-09-03T06:10:11.744Z,40
2018-09-03T06:11:20.393Z,45
2018-09-03T06:12:29.040Z,50
2018-09-03T06:13:37.681Z,50
2018-09-03T06:14:46.325Z,50
2018-09-03T06:15:54.969Z,45
2018-09-03T06:17:03.624Z,40
2018-09-03T06:18:12.269Z,45
2018-09-03T06:19:21.174Z,50
2018-09-03T06:20:29.818Z,50
2018-09-03T06:21:38.722Z,50
2018-09-03T06:22:47.375Z,45
2018-09-03T06:23:56.018Z,40
2018-09-03T06:25:04.672Z,40
2018-09-03T06:26:13.309Z,40
2018-09-03T06:27:22.501Z,40
2018-09-03T06:28:31.405Z,35
2018-09-03T06:29:40.063Z,35
2018-09-03T06:30:48.699Z,30
2018-09-03T06:31:57.353Z,30
2018-09-03T06:33:05.996Z,30
2018-09-03T06:34:14.643Z,35
2018-09-03T06:35:23.281Z,45
2018-09-03T06:36:31.935Z,50
2018-09-03T06:37:40.848Z,50
2018-09-03T06:38:49.522Z,60
2018-09-03T06:39:58.155Z,65
2018-09-03T06:41:07.057Z,70
2018-09-03T06:42:15.707Z,75
2018-09-03T06:43:24.356Z,75
2018-09-03T06:44:33.009Z,75
2018-09-03T06:45:41.647Z,75
2018-09-03T06:46:50.297Z,70
2018-09-03T06:47:58.939Z,65
2018-09-03T06:49:07.861Z,55
2018-09-03T06:50:16.499Z,45
2018-09-03T06:51:25.154Z,45
2018-09-03T06:52:34.099Z,40
2018-09-03T06:53:42.724Z,40
2018-09-03T06:54:51.368Z,35
2018-09-03T06:56:00.007Z,35
2018-09-03T06:57:08.916Z,35
2018-09-03T06:58:17.558Z,35
2018-09-03T06:59:26.231Z,35
2018-09-03T07:00:35.139Z,40
2018-09-03T07:01:43.787Z,45
2018-09-03T07:02:52.422Z,45
2018-09-03T07:04:01.078Z,45
2018-09-03T07:05:09.725Z,50
2018-09-03T07:06:18.373Z,50
2018-09-03T07:07:27.273Z,50
2018-09-03T07:08:35.931Z,50
2018-09-03T07:09:44.577Z,50
2018-09-03T07:10:53.229Z,55
2018-09-03T07:12:01.863Z,65
2018-09-03T07:13:10.512Z,65
2018-09-03T07:14:19.162Z,65
2018-09-03T07:15:27.813Z,60
2018-09-03T07:16:36.463Z,60
2018-09-03T07:17:45.103Z,60
2018-09-03T07:18:53.755Z,60
2018-09-03T07:20:02.662Z,50
2018-09-03T07:21:11.320Z,45
2018-09-03T07:22:19.958Z,45
2018-09-03T07:23:28.609Z,45
2018-09-03T07:24:37.251Z,55
2018-09-03T07:25:45.915Z,60
2018-09-03T07:26:54.813Z,55
2018-09-03T07:28:03.745Z,55
2018-09-03T07:29:12.386Z,50
2018-09-03T07:30:21.043Z,55
2018-09-03T07:31:29.960Z,60
2018-09-03T07:32:38.597Z,65
2018-09-03T07:33:47.246Z,70
2018-09-03T07:34:55.890Z,70
2018-09-03T07:36:04.545Z,75
2018-09-03T07:37:13.187Z,70
2018-09-03T07:38:21.844Z,65
2018-09-03T07:39:30.479Z,55
2018-09-03T07:40:39.398Z,50
2018-09-03T07:41:48.384Z,40
2018-09-03T07:42:57.223Z,40
2018-09-03T07:44:05.909Z,35
2018-09-03T07:45:14.525Z,30
2018-09-03T07:46:23.176Z,35
2018-09-03T07:47:31.840Z,35
2018-09-03T07:48:40.454Z,30
2018-09-03T07:49:49.365Z,35
2018-09-03T07:50:58.077Z,40
2018-09-03T07:52:06.667Z,45
2018-09-03T07:53:15.554Z,50
2018-09-03T07:54:24.194Z,50
2018-09-03T07:55:32.843Z,45
2018-09-03T07:56:41.490Z,40
2018-09-03T07:57:50.138Z,40
2018-09-03T07:58:59.050Z,40
2018-09-03T08:00:07.700Z,45
2018-09-03T08:01:16.388Z,55
2018-09-03T08:02:24.997Z,70
2018-09-03T08:03:33.647Z,95
2018-09-03T08:04:42.297Z,105
2018-09-03T08:05:50.941Z,120
2018-09-03T08:06:59.595Z,120
2018-09-03T08:08:08.239Z,100
2018-09-03T08:09:16.902Z,90
2018-09-03T08:10:25.549Z,85
2018-09-03T08:11:34.200Z,80
2018-09-03T08:12:42.856Z,80
2018-09-03T08:13:51.503Z,80
2018-09-03T08:15:00.150Z,85
2018-09-03T08:16:08.793Z,90
2018-09-03T08:17:17.444Z,105
2018-09-03T08:18:26.090Z,125
2018-09-03T08:19:34.744Z,145
2018-09-03T08:20:43.386Z,180
2018-09-03T08:21:52.039Z,220
2018-09-03T08:23:00.683Z,230
2018-09-03T08:24:09.599Z,255
2018-09-03T08:25:18.243Z,255
2018-09-03T08:26:26.895Z,235
2018-09-03T08:27:35.541Z,215
2018-09-03T08:28:44.191Z,205
2018-09-03T08:29:53.104Z,210
2018-09-03T08:31:01.747Z,215
2018-09-03T08:32:10.393Z,230
2018-09-03T08:33:19.053Z,250
2018-09-03T08:34:27.703Z,275
2018-09-03T08:35:36.696Z,290
2018-09-03T08:36:45.619Z,285
2018-09-03T08:37:54.271Z,270
2018-09-03T08:39:02.924Z,280
2018-09-03T08:40:11.568Z,285
2018-09-03T08:41:20.384Z,250
2018-09-03T08:42:29.032Z,235
2018-09-03T08:43:37.688Z,220
2018-09-03T08:44:46.403Z,215
2018-09-03T08:45:54.983Z,220
2018-09-03T08:47:03.633Z,220
2018-09-03T08:48:12.276Z,210
2018-09-03T08:49:20.927Z,220
2018-09-03T08:50:29.692Z,245
2018-09-03T08:51:38.226Z,270
2018-09-03T08:52:46.864Z,270
2018-09-03T08:53:55.513Z,275
2018-09-03T08:55:04.166Z,270
2018-09-03T08:56:13.077Z,265
2018-09-03T08:57:21.735Z,260
2018-09-03T08:58:30.380Z,255
2018-09-03T08:59:39.030Z,260
2018-09-03T09:00:47.953Z,275
2018-09-03T09:01:56.605Z,275
2018-09-03T09:03:05.251Z,275
2018-09-03T09:04:14.168Z,275
2018-09-03T09:05:22.811Z,295
2018-09-03T09:06:31.719Z,315
2018-09-03T09:07:40.382Z,300
2018-09-03T09:08:49.035Z,275
2018-09-03T09:09:57.684Z,270
2018-09-03T09:11:06.330Z,275
2018-09-03T09:12:14.985Z,275
2018-09-03T09:13:23.632Z,250
2018-09-03T09:14:32.282Z,245
2018-09-03T09:15:40.929Z,195
2018-09-03T09:16:49.848Z,215
2018-09-03T09:17:58.763Z,205
2018-09-03T09:19:07.683Z,190
2018-09-03T09:20:16.594Z,200
2018-09-03T09:21:25.246Z,205
2018-09-03T09:22:33.896Z,200
2018-09-03T09:23:42.547Z,200
2018-09-03T09:24:51.212Z,195
2018-09-03T09:26:00.655Z,200
2018-09-03T09:27:09.310Z,195
2018-09-03T09:28:18.221Z,195
2018-09-03T09:29:27.136Z,195
2018-09-03T09:30:35.779Z,200
2018-09-03T09:31:44.428Z,195
2018-09-03T09:32:53.077Z,195
2018-09-03T09:34:01.740Z,195
2018-09-03T09:35:10.660Z,195
2018-09-03T09:36:19.309Z,195
2018-09-03T09:37:27.955Z,195
2018-09-03T09:38:36.609Z,195
2018-09-03T09:39:45.254Z,195
2018-09-03T09:40:53.909Z,195
2018-09-03T09:42:02.556Z,195
2018-09-03T09:43:11.378Z,190
2018-09-03T09:44:19.867Z,190
2018-09-03T09:45:28.545Z,195
2018-09-03T09:46:37.198Z,190
2018-09-03T09:47:45.843Z,190
2018-09-03T09:48:54.494Z,190
2018-09-03T09:50:03.143Z,190
2018-09-03T09:51:11.793Z,190
2018-09-03T09:52:20.939Z,190
2018-09-03T09:53:29.941Z,190
2018-09-03T09:54:38.589Z,190
2018-09-03T09:55:47.240Z,190
2018-09-03T09:56:55.881Z,205
2018-09-03T09:58:04.533Z,195
2018-09-03T09:59:13.457Z,195
2018-09-03T10:00:22.108Z,195
2018-09-03T10:01:30.758Z,200
2018-09-03T10:02:39.403Z,200
2018-09-03T10:03:48.053Z,210
2018-09-03T10:04:56.694Z,205
2018-09-03T10:06:05.355Z,200
2018-09-03T10:07:13.994Z,205
2018-09-03T10:08:22.651Z,195
2018-09-03T10:09:31.297Z,215
2018-09-03T10:10:39.958Z,220
2018-09-03T10:11:48.626Z,255
2018-09-03T10:12:57.537Z,265
2018-09-03T10:14:06.184Z,275
2018-09-03T10:15:14.925Z,275
2018-09-03T10:16:23.681Z,260
2018-09-03T10:17:32.328Z,255
2018-09-03T10:18:40.975Z,250
2018-09-03T10:19:49.626Z,240
2018-09-03T10:20:58.365Z,235
2018-09-03T10:22:06.929Z,235
2018-09-03T10:23:15.875Z,240
2018-09-03T10:24:24.517Z,245
2018-09-03T10:25:33.175Z,270
2018-09-03T10:26:41.821Z,285
2018-09-03T10:27:50.476Z,255
2018-09-03T10:28:59.380Z,240
2018-09-03T10:30:08.041Z,240
2018-09-03T10:31:16.954Z,230
2018-09-03T10:32:26.145Z,250
2018-09-03T10:33:34.783Z,255
2018-09-03T10:34:43.435Z,240
2018-09-03T10:35:52.092Z,245
2018-09-03T10:37:00.744Z,235
2018-09-03T10:38:09.435Z,215
2018-09-03T10:39:18.041Z,195
2018-09-03T10:40:26.696Z,200
2018-09-03T10:41:35.343Z,215
2018-09-03T10:42:44.002Z,200
2018-09-03T10:43:52.645Z,180
2018-09-03T10:45:01.310Z,180
2018-09-03T10:46:09.950Z,210
2018-09-03T10:47:18.697Z,255
2018-09-03T10:48:27.250Z,295
2018-09-03T10:49:35.906Z,330
2018-09-03T10:50:44.561Z,330
2018-09-03T10:51:53.218Z,325
2018-09-03T10:53:01.867Z,310
2018-09-03T10:54:10.778Z,275
2018-09-03T10:55:19.693Z,220
2018-09-03T10:56:28.341Z,225
2018-09-03T10:57:36.995Z,245
2018-09-03T10:58:45.648Z,245
2018-09-03T10:59:54.571Z,245
2018-09-03T11:01:03.217Z,200
2018-09-03T11:02:11.874Z,190
2018-09-03T11:03:20.525Z,200
2018-09-03T11:04:29.176Z,215
2018-09-03T11:05:37.825Z,235
2018-09-03T11:06:46.476Z,235
2018-09-03T11:07:55.124Z,250
2018-09-03T11:09:03.774Z,260
2018-09-03T11:10:12.697Z,250
2018-09-03T11:11:21.352Z,255
2018-09-03T11:12:30.009Z,265
2018-09-03T11:13:38.667Z,255
2018-09-03T11:14:47.841Z,250
2018-09-03T11:15:56.489Z,260
2018-09-03T11:17:05.405Z,270
2018-09-03T11:18:14.054Z,270
2018-09-03T11:19:22.711Z,260
2018-09-03T11:20:31.357Z,250
2018-09-03T11:21:40.825Z,250
2018-09-03T11:22:49.331Z,250
2018-09-03T11:23:58.435Z,240
2018-09-03T11:25:06.960Z,220
2018-09-03T11:26:15.615Z,200
2018-09-03T11:27:24.262Z,190
2018-09-03T11:28:33.015Z,175
2018-09-03T11:29:41.827Z,170
2018-09-03T11:30:50.479Z,190
2018-09-03T11:31:59.127Z,190
2018-09-03T11:33:08.047Z,200
2018-09-03T11:34:16.706Z,205
2018-09-03T11:35:25.416Z,210
2018-09-03T11:36:34.011Z,210
2018-09-03T11:37:42.655Z,210
2018-09-03T11:38:51.309Z,210
2018-09-03T11:39:59.961Z,210
2018-09-03T11:41:08.620Z,225
2018-09-03T11:42:17.266Z,225
2018-09-03T11:43:25.921Z,215
2018-09-03T11:44:34.571Z,210
2018-09-03T11:45:43.224Z,205
2018-09-03T11:46:52.136Z,210
2018-09-03T11:48:00.787Z,220
2018-09-03T11:49:09.441Z,220
2018-09-03T11:50:18.098Z,230
2018-09-03T11:51:27.019Z,260
2018-09-03T11:52:35.666Z,280
2018-09-03T11:53:44.321Z,285
2018-09-03T11:54:52.971Z,300
2018-09-03T11:56:01.634Z,315
2018-09-03T11:57:10.543Z,320
2018-09-03T11:58:19.199Z,305
2018-09-03T11:59:27.848Z,285
2018-09-03T12:00:36.611Z,275
2018-09-03T12:01:45.151Z,275
2018-09-03T12:02:53.804Z,270
2018-09-03T12:04:02.457Z,265
2018-09-03T12:05:11.117Z,280
2018-09-03T12:06:19.767Z,295
2018-09-03T12:07:28.414Z,290
2018-09-03T12:08:37.058Z,300
2018-09-03T12:09:45.709Z,285
2018-09-03T12:10:54.376Z,275
2018-09-03T12:12:03.022Z,255
2018-09-03T12:13:11.678Z,235
2018-09-03T12:14:20.321Z,230
2018-09-03T12:15:28.983Z,240
2018-09-03T12:16:37.628Z,245
2018-09-03T12:17:46.285Z,205
2018-09-03T12:18:54.929Z,205
2018-09-03T12:20:03.591Z,220
2018-09-03T12:21:12.275Z,200
2018-09-03T12:22:20.894Z,195
2018-09-03T12:23:29.540Z,180
2018-09-03T12:24:38.456Z,180
2018-09-03T12:25:47.110Z,185
2018-09-03T12:26:55.764Z,195
2018-09-03T12:28:04.418Z,190
2018-09-03T12:29:13.060Z,195
2018-09-03T12:30:21.717Z,205
2018-09-03T12:31:30.369Z,210
2018-09-03T12:32:39.028Z,195
2018-09-03T12:33:47.675Z,195
2018-09-03T12:34:56.594Z,205
2018-09-03T12:36:05.242Z,215
2018-09-03T12:37:13.900Z,225
2018-09-03T12:38:22.543Z,225
2018-09-03T12:39:31.206Z,225
2018-09-03T12:40:40.175Z,220
2018-09-03T12:41:49.075Z,230
2018-09-03T12:42:57.769Z,250
2018-09-03T12:44:06.626Z,250
2018-09-03T12:45:15.256Z,255
2018-09-03T12:46:24.268Z,260
2018-09-03T12:47:32.983Z,260
2018-09-03T12:48:41.808Z,265
2018-09-03T12:49:50.791Z,270
2018-09-03T12:51:00.043Z,270
2018-09-03T12:52:08.954Z,270
2018-09-03T12:53:17.610Z,270
2018-09-03T12:54:26.269Z,275
2018-09-03T12:55:34.920Z,270
2018-09-03T12:56:43.562Z,265
2018-09-03T12:57:52.219Z,260
2018-09-03T12:59:00.870Z,255
2018-09-03T13:00:09.531Z,260
2018-09-03T13:01:18.180Z,255
2018-09-03T13:02:26.826Z,255
2018-09-03T13:03:35.742Z,255
2018-09-03T13:04:44.401Z,255
2018-09-03T13:05:53.062Z,250
2018-09-03T13:07:01.711Z,250
2018-09-03T13:08:10.369Z,245
2018-09-03T13:09:19.019Z,240
2018-09-03T13:10:27.682Z,235
2018-09-03T13:11:36.330Z,220
2018-09-03T13:12:45.319Z,210
2018-09-03T13:13:53.913Z,205
2018-09-03T13:15:02.570Z,195
2018-09-03T13:16:11.221Z,185
2018-09-03T13:17:19.887Z,180
2018-09-03T13:18:28.792Z,170
2018-09-03T13:19:37.448Z,160
2018-09-03T13:20:46.372Z,155
2018-09-03T13:21:55.027Z,145
2018-09-03T13:23:03.683Z,135
2018-09-03T13:24:12.326Z,130
2018-09-03T13:25:20.981Z,135
2018-09-03T13:26:29.628Z,130
2018-09-03T13:27:38.283Z,135
2018-09-03T13:28:46.925Z,140
2018-09-03T13:29:55.583Z,145
2018-09-03T13:31:04.228Z,145
2018-09-03T13:32:13.158Z,150
2018-09-03T13:33:21.815Z,150
2018-09-03T13:34:30.470Z,150
2018-09-03T13:35:39.121Z,150
2018-09-03T13:36:47.781Z,155
2018-09-03T13:37:56.430Z,155
2018-09-03T13:39:05.370Z,150
2018-09-03T13:40:14.017Z,145
2018-09-03T13:41:22.999Z,145
2018-09-03T13:42:32.152Z,150
2018-09-03T13:43:41.034Z,150
2018-09-03T13:44:49.691Z,155
2018-09-03T13:45:58.332Z,155
2018-09-03T13:47:06.986Z,155
2018-09-03T13:48:15.661Z,160
2018-09-03T13:49:24.651Z,160
2018-09-03T13:50:33.289Z,165
2018-09-03T13:51:41.951Z,165
2018-09-03T13:52:50.916Z,165
2018-09-03T13:53:59.572Z,170
2018-09-03T13:55:08.663Z,175
2018-09-03T13:56:17.289Z,180
2018-09-03T13:57:25.940Z,185
2018-09-03T13:58:34.592Z,185
2018-09-03T13:59:43.251Z,190
2018-09-03T14:00:51.896Z,185
2018-09-03T14:02:00.547Z,185
2018-09-03T14:03:09.199Z,190
2018-09-03T14:04:17.854Z,190
2018-09-03T14:05:26.500Z,195
2018-09-03T14:06:35.161Z,195
2018-09-03T14:07:44.399Z,195
2018-09-03T14:08:53.022Z,195
2018-09-03T14:10:01.767Z,195
2018-09-03T14:11:10.325Z,195
2018-09-03T14:12:19.038Z,195
2018-09-03T14:13:27.629Z,195
2018-09-03T14:14:36.278Z,200
2018-09-03T14:15:45.011Z,200
2018-09-03T14:16:53.579Z,205
2018-09-03T14:18:02.488Z,205
2018-09-03T14:19:11.145Z,210
2018-09-03T14:20:19.795Z,215
2018-09-03T14:21:28.449Z,215
2018-09-03T14:22:37.357Z,215
2018-09-03T14:23:46.272Z,220
2018-09-03T14:24:55.185Z,220
2018-09-03T14:26:03.836Z,220
2018-09-03T14:27:12.533Z,225
2018-09-03T14:28:21.729Z,220
2018-09-03T14:29:30.635Z,215
2018-09-03T14:30:39.289Z,215
2018-09-03T14:31:47.935Z,215
2018-09-03T14:32:56.591Z,215
2018-09-03T14:34:05.485Z,215
2018-09-03T14:35:14.157Z,210
2018-09-03T14:36:23.330Z,205
2018-09-03T14:37:32.030Z,195
2018-09-03T14:38:40.629Z,190
2018-09-03T14:39:49.289Z,190
2018-09-03T14:40:57.942Z,185
2018-09-03T14:42:06.860Z,185
2018-09-03T14:43:15.505Z,180
2018-09-03T14:44:24.156Z,175
2018-09-03T14:45:32.802Z,175
2018-09-03T14:46:41.461Z,170
2018-09-03T14:47:50.111Z,165
2018-09-03T14:48:58.767Z,160
2018-09-03T14:50:07.410Z,155
2018-09-03T14:51:16.064Z,150
2018-09-03T14:52:24.722Z,150
2018-09-03T14:53:33.433Z,145
2018-09-03T14:54:42.034Z,145
2018-09-03T14:55:50.676Z,145
2018-09-03T14:56:59.328Z,145
2018-09-03T14:58:07.974Z,145
2018-09-03T14:59:16.633Z,150
2018-09-03T15:00:25.279Z,150
2018-09-03T15:01:33.939Z,155
2018-09-03T15:02:42.586Z,150
2018-09-03T15:03:51.801Z,150
2018-09-03T15:05:00.446Z,150
2018-09-03T15:06:09.364Z,140
2018-09-03T15:07:18.013Z,135
2018-09-03T15:08:27.794Z,130
2018-09-03T15:09:36.374Z,120
2018-09-03T15:10:45.021Z,115
2018-09-03T15:11:53.670Z,110
2018-09-03T15:13:02.323Z,115
2018-09-03T15:14:10.979Z,115
2018-09-03T15:15:19.895Z,115
2018-09-03T15:16:28.550Z,110
2018-09-03T15:17:37.197Z,110
2018-09-03T15:18:46.120Z,105
2018-09-03T15:19:54.766Z,105
2018-09-03T15:21:03.688Z,105
2018-09-03T15:22:12.334Z,105
2018-09-03T15:23:20.992Z,115
2018-09-03T15:24:29.643Z,110
2018-09-03T15:25:38.575Z,120
2018-09-03T15:26:47.484Z,125
2018-09-03T15:27:56.138Z,130
2018-09-03T15:29:04.793Z,135
2018-09-03T15:30:13.449Z,135
2018-09-03T15:31:22.100Z,135
2018-09-03T15:32:30.741Z,135
2018-09-03T15:33:39.663Z,135
2018-09-03T15:34:48.312Z,135
2018-09-03T15:35:56.975Z,130
2018-09-03T15:37:05.618Z,125
2018-09-03T15:38:14.273Z,125
2018-09-03T15:39:22.921Z,125
2018-09-03T15:40:31.578Z,130
2018-09-03T15:41:40.222Z,130
2018-09-03T15:42:48.910Z,135
2018-09-03T15:43:57.527Z,140
2018-09-03T15:45:06.453Z,140
2018-09-03T15:46:15.104Z,145
2018-09-03T15:47:23.759Z,145
2018-09-03T15:48:32.487Z,145
2018-09-03T15:49:41.067Z,145
2018-09-03T15:50:49.727Z,145
2018-09-03T15:51:58.374Z,145
2018-09-03T15:53:07.025Z,145
2018-09-03T15:54:15.681Z,145
2018-09-03T15:55:24.335Z,145
2018-09-03T15:56:32.989Z,150
2018-09-03T15:57:41.636Z,150
2018-09-03T15:58:50.281Z,155
2018-09-03T15:59:58.937Z,160
2018-09-03T16:01:07.584Z,150
2018-09-03T16:02:16.500Z,150
2018-09-03T16:03:25.146Z,145
2018-09-03T16:04:34.072Z,145
2018-09-03T16:05:42.723Z,140
2018-09-03T16:06:51.382Z,145
2018-09-03T16:08:00.032Z,135
2018-09-03T16:09:08.793Z,135
2018-09-03T16:10:17.596Z,135
2018-09-03T16:11:26.248Z,135
2018-09-03T16:12:34.913Z,135